createdAt,value
2022-12-02T00:01:42.752Z,-8.42
2022-12-02T00:03:46.570Z,-8.40
2022-12-02T00:05:52.601Z,-8.41
2022-12-02T00:07:58.633Z,-8.39
2022-12-02T00:10:01.362Z,-8.40
2022-12-02T00:12:19.999Z,-8.39
2022-12-02T00:14:29.359Z,-8.39
2022-12-02T00:16:31.942Z,-8.40
2022-12-02T00:18:34.612Z,-8.37
2022-12-02T00:20:38.083Z,-8.34
2022-12-02T00:22:40.655Z,-8.34
2022-12-02T00:24:43.318Z,-8.33
2022-12-02T00:26:46.272Z,-8.32
2022-12-02T00:28:48.860Z,-8.32
2022-12-02T00:30:51.484Z,-8.31
2022-12-02T00:32:54.059Z,-8.29
2022-12-02T00:34:56.575Z,-8.30
2022-12-02T00:36:59.181Z,-8.30
2022-12-02T00:39:01.893Z,-8.26
2022-12-02T00:41:04.799Z,-8.27
2022-12-02T00:43:39.951Z,-8.26
2022-12-02T00:46:01.309Z,-8.30
2022-12-02T00:48:04.309Z,-8.30
2022-12-02T00:50:07.526Z,-8.31
2022-12-02T00:52:10.091Z,-8.28
2022-12-02T00:54:14.033Z,-8.28
2022-12-02T00:56:16.631Z,-8.27
2022-12-02T00:58:19.338Z,-8.27
2022-12-02T01:00:21.888Z,-8.25
2022-12-02T01:02:24.590Z,-8.25
2022-12-02T01:04:27.157Z,-8.24
2022-12-02T01:06:29.747Z,-8.23
2022-12-02T01:08:32.837Z,-8.22
2022-12-02T01:10:35.458Z,-8.21
2022-12-02T01:12:37.971Z,-8.18
2022-12-02T01:14:40.569Z,-8.16
2022-12-02T01:16:43.295Z,-8.15
2022-12-02T01:18:45.911Z,-8.15
2022-12-02T01:20:48.684Z,-8.14
2022-12-02T01:22:51.317Z,-8.13
2022-12-02T01:24:54.018Z,-8.18
2022-12-02T01:26:56.818Z,-8.12
2022-12-02T01:28:59.384Z,-8.11
2022-12-02T01:31:01.961Z,-8.08
2022-12-02T01:33:04.763Z,-8.09
2022-12-02T01:35:07.944Z,-8.09
2022-12-02T01:37:29.247Z,-8.06
2022-12-02T01:39:50.690Z,-8.03
2022-12-02T01:42:12.077Z,-8.04
2022-12-02T01:44:33.940Z,-8.03
2022-12-02T01:46:55.804Z,-8.05
2022-12-02T01:49:16.979Z,-8.05
2022-12-02T01:51:38.496Z,-8.07
2022-12-02T01:54:00.111Z,-8.06
2022-12-02T01:56:21.461Z,-8.07
2022-12-02T01:58:42.642Z,-8.08
2022-12-02T02:01:04.065Z,-8.05
2022-12-02T02:03:25.303Z,-8.07
2022-12-02T02:05:47.961Z,-8.03
2022-12-02T02:08:15.230Z,-8.05
2022-12-02T02:10:18.470Z,-8.08
2022-12-02T02:12:22.619Z,-8.09
2022-12-02T02:14:45.365Z,-8.06
2022-12-02T02:16:47.989Z,-8.05
2022-12-02T02:18:50.762Z,-8.04
2022-12-02T02:20:56.517Z,-8.03
2022-12-02T02:23:04.955Z,-8.03
2022-12-02T02:25:20.019Z,-8.01
2022-12-02T02:27:23.420Z,-8.02
2022-12-02T02:29:26.031Z,-8.02
2022-12-02T02:31:28.562Z,-8.03
2022-12-02T02:33:33.733Z,-8.03
2022-12-02T02:35:38.591Z,-8.01
2022-12-02T02:37:41.645Z,-8.02
2022-12-02T02:39:44.446Z,-8.01
2022-12-02T02:41:47.109Z,-8.01
2022-12-02T02:43:50.225Z,-8.00
2022-12-02T02:45:54.690Z,-8.01
2022-12-02T02:47:58.003Z,-8.00
2022-12-02T02:50:00.588Z,-7.99
2022-12-02T02:52:21.858Z,-7.99
2022-12-02T02:54:27.313Z,-8.02
2022-12-02T02:56:29.990Z,-7.99
2022-12-02T02:58:34.901Z,-7.98
2022-12-02T03:00:37.907Z,-7.98
2022-12-02T03:02:41.975Z,-7.99
2022-12-02T03:04:45.000Z,-7.97
2022-12-02T03:06:49.511Z,-7.96
2022-12-02T03:08:53.158Z,-7.95
2022-12-02T03:10:57.604Z,-7.95
2022-12-02T03:13:00.732Z,-7.93
2022-12-02T03:15:05.607Z,-7.93
2022-12-02T03:17:08.412Z,-7.92
2022-12-02T03:19:11.638Z,-7.89
2022-12-02T03:21:17.312Z,-7.88
2022-12-02T03:23:20.894Z,-7.88
2022-12-02T03:25:23.975Z,-7.87
2022-12-02T03:27:27.900Z,-7.86
2022-12-02T03:29:30.877Z,-7.83
2022-12-02T03:31:34.678Z,-7.84
2022-12-02T03:33:37.848Z,-7.80
2022-12-02T03:35:40.870Z,-7.81
2022-12-02T03:37:43.846Z,-7.79
2022-12-02T03:39:46.536Z,-7.79
2022-12-02T03:41:49.422Z,-7.77
2022-12-02T03:43:52.152Z,-7.76
2022-12-02T03:45:56.227Z,-7.76
2022-12-02T03:48:00.202Z,-7.77
2022-12-02T03:50:03.400Z,-7.77
2022-12-02T03:52:06.488Z,-7.77
2022-12-02T03:54:09.145Z,-7.74
2022-12-02T03:56:12.060Z,-7.74
2022-12-02T03:58:14.816Z,-7.73
2022-12-02T04:00:17.748Z,-7.71
2022-12-02T04:02:20.282Z,-7.72
2022-12-02T04:04:23.336Z,-7.71
2022-12-02T04:06:25.982Z,-7.73
2022-12-02T04:08:28.998Z,-7.72
2022-12-02T04:10:31.635Z,-7.71
2022-12-02T04:12:34.221Z,-7.70
2022-12-02T04:14:36.912Z,-7.71
2022-12-02T04:16:39.524Z,-7.70
2022-12-02T04:18:42.143Z,-7.70
2022-12-02T04:20:44.753Z,-7.68
2022-12-02T04:22:47.322Z,-7.67
2022-12-02T04:24:50.103Z,-7.65
2022-12-02T04:26:52.897Z,-7.61
2022-12-02T04:28:55.443Z,-7.60
2022-12-02T04:30:58.042Z,-7.61
2022-12-02T04:33:00.648Z,-7.59
2022-12-02T04:35:03.262Z,-7.57
2022-12-02T04:37:06.301Z,-7.58
2022-12-02T04:39:09.026Z,-7.58
2022-12-02T04:41:11.607Z,-7.56
2022-12-02T04:43:14.196Z,-7.57
2022-12-02T04:45:16.947Z,-7.61
2022-12-02T04:47:19.557Z,-7.61
2022-12-02T04:49:22.068Z,-7.60
2022-12-02T04:51:24.624Z,-7.61
2022-12-02T04:53:27.189Z,-7.57
2022-12-02T04:55:29.746Z,-7.58
2022-12-02T04:57:32.327Z,-7.59
2022-12-02T04:59:35.055Z,-7.59
2022-12-02T05:01:37.595Z,-7.57
2022-12-02T05:03:40.205Z,-7.54
2022-12-02T05:05:42.821Z,-7.55
2022-12-02T05:07:45.399Z,-7.58
2022-12-02T05:09:48.011Z,-7.58
2022-12-02T05:11:50.647Z,-7.60
2022-12-02T05:13:53.286Z,-7.60
2022-12-02T05:15:56.188Z,-7.66
2022-12-02T05:17:58.760Z,-7.65
2022-12-02T05:20:01.400Z,-7.68
2022-12-02T05:22:06.831Z,-7.70
2022-12-02T05:24:09.691Z,-7.72
2022-12-02T05:26:13.762Z,-7.71
2022-12-02T05:28:17.919Z,-7.72
2022-12-02T05:30:20.817Z,-7.73
2022-12-02T05:32:23.525Z,-7.70
2022-12-02T05:34:26.312Z,-7.71
2022-12-02T05:36:29.085Z,-7.68
2022-12-02T05:38:31.707Z,-7.68
2022-12-02T05:40:34.256Z,-7.68
2022-12-02T05:42:36.952Z,-7.68
2022-12-02T05:44:40.850Z,-7.70
2022-12-02T05:46:43.594Z,-7.68
2022-12-02T05:48:48.940Z,-7.67
2022-12-02T05:50:54.456Z,-7.62
2022-12-02T05:52:57.522Z,-7.62
2022-12-02T05:55:07.911Z,-7.66
2022-12-02T05:57:12.194Z,-7.69
2022-12-02T05:59:18.406Z,-7.70
2022-12-02T06:01:32.903Z,-7.70
2022-12-02T06:03:35.739Z,-7.76
2022-12-02T06:05:45.634Z,-7.77
2022-12-02T06:07:56.584Z,-7.72
2022-12-02T06:10:33.542Z,-7.66
2022-12-02T06:12:41.494Z,-7.57
2022-12-02T06:14:53.268Z,-7.53
2022-12-02T06:16:59.284Z,-7.48
2022-12-02T06:19:27.277Z,-7.43
2022-12-02T06:21:34.132Z,-7.39
2022-12-02T06:23:43.246Z,-7.34
2022-12-02T06:25:47.315Z,-7.34
2022-12-02T06:27:50.239Z,-7.28
2022-12-02T06:30:15.147Z,-7.23
2022-12-02T06:32:42.804Z,-7.20
2022-12-02T06:35:20.582Z,-7.19
2022-12-02T06:37:44.200Z,-7.16
2022-12-02T06:40:29.198Z,-7.17
2022-12-02T06:42:50.859Z,-7.11
2022-12-02T06:45:06.009Z,-7.07
2022-12-02T06:47:33.428Z,-7.08
2022-12-02T06:49:40.980Z,-7.08
2022-12-02T06:51:44.621Z,-7.05
2022-12-02T06:53:49.004Z,-7.00
2022-12-02T06:56:01.658Z,-6.98
2022-12-02T06:58:36.382Z,-7.03
2022-12-02T07:00:40.837Z,-7.02
2022-12-02T07:02:48.558Z,-7.03
2022-12-02T07:04:57.225Z,-6.94
2022-12-02T07:07:15.436Z,-6.91
2022-12-02T07:09:38.646Z,-6.86
2022-12-02T07:11:50.939Z,-6.97
2022-12-02T07:13:56.886Z,-7.05
2022-12-02T07:16:27.675Z,-7.08
2022-12-02T07:18:37.772Z,-7.06
2022-12-02T07:20:47.420Z,-7.07
2022-12-02T07:23:06.468Z,-7.02
2022-12-02T07:25:10.663Z,-7.00
2022-12-02T07:27:28.179Z,-7.01
2022-12-02T07:29:33.837Z,-7.00
2022-12-02T07:31:36.441Z,-7.02
2022-12-02T07:33:40.858Z,-6.98
2022-12-02T07:35:46.283Z,-7.00
2022-12-02T07:37:49.047Z,-7.05
2022-12-02T07:39:51.649Z,-7.04
2022-12-02T07:41:55.250Z,-7.07
2022-12-02T07:44:01.764Z,-6.94
2022-12-02T07:46:05.780Z,-6.93
2022-12-02T07:48:26.996Z,-6.90
2022-12-02T07:50:32.440Z,-6.88
2022-12-02T07:52:53.947Z,-6.86
2022-12-02T07:55:15.074Z,-6.77
2022-12-02T07:57:36.158Z,-6.76
2022-12-02T07:59:57.355Z,-6.75
2022-12-02T08:02:00.014Z,-6.81
2022-12-02T08:04:21.266Z,-6.92
2022-12-02T08:06:42.536Z,-6.93
2022-12-02T08:09:04.319Z,-6.97
2022-12-02T08:11:26.031Z,-7.02
2022-12-02T08:13:47.902Z,-7.09
2022-12-02T08:16:11.497Z,-7.08
2022-12-02T08:18:33.259Z,-7.09
2022-12-02T08:20:54.922Z,-7.00
2022-12-02T08:23:16.386Z,-6.98
2022-12-02T08:25:37.592Z,-6.88
2022-12-02T08:27:58.836Z,-6.83
2022-12-02T08:30:20.411Z,-6.72
2022-12-02T08:32:41.623Z,-6.65
2022-12-02T08:35:03.127Z,-6.61
2022-12-02T08:37:24.646Z,-6.56
2022-12-02T08:39:45.855Z,-6.66
2022-12-02T08:42:07.310Z,-6.74
2022-12-02T08:44:28.715Z,-6.75
2022-12-02T08:46:54.356Z,-6.71
2022-12-02T08:49:16.035Z,-6.75
2022-12-02T08:51:37.385Z,-6.72
2022-12-02T08:53:39.975Z,-6.72
2022-12-02T08:55:43.026Z,-6.75
2022-12-02T08:57:45.690Z,-6.75
2022-12-02T08:59:48.220Z,-6.68
2022-12-02T09:01:51.029Z,-6.66
2022-12-02T09:03:53.727Z,-6.73
2022-12-02T09:05:56.503Z,-6.77
2022-12-02T09:07:59.230Z,-6.83
2022-12-02T09:10:02.218Z,-6.84
2022-12-02T09:12:05.647Z,-6.86
2022-12-02T09:14:08.384Z,-6.91
2022-12-02T09:16:11.073Z,-6.98
2022-12-02T09:18:14.719Z,-7.00
2022-12-02T09:20:18.588Z,-7.04
2022-12-02T09:22:21.341Z,-6.94
2022-12-02T09:24:24.062Z,-6.86
2022-12-02T09:26:26.650Z,-6.87
2022-12-02T09:28:29.212Z,-6.93
2022-12-02T09:30:31.980Z,-6.99
2022-12-02T09:32:34.650Z,-7.03
2022-12-02T09:34:39.773Z,-7.11
2022-12-02T09:36:42.428Z,-7.15
2022-12-02T09:38:45.151Z,-7.21
2022-12-02T09:40:47.907Z,-7.36
2022-12-02T09:42:51.381Z,-7.42
2022-12-02T09:44:54.661Z,-7.52
2022-12-02T09:46:57.743Z,-7.57
2022-12-02T09:49:01.383Z,-7.54
2022-12-02T09:51:22.702Z,-7.55
2022-12-02T09:53:32.268Z,-7.52
2022-12-02T09:55:37.824Z,-7.49
2022-12-02T09:58:11.946Z,-7.40
2022-12-02T10:00:20.524Z,-7.31
2022-12-02T10:02:40.145Z,-7.13
2022-12-02T10:04:43.177Z,-6.96
2022-12-02T10:06:45.993Z,-6.87
2022-12-02T10:08:48.839Z,-6.79
2022-12-02T10:10:54.577Z,-6.78
2022-12-02T10:13:00.787Z,-6.79
2022-12-02T10:15:08.474Z,-6.81
2022-12-02T10:17:30.576Z,-6.90
2022-12-02T10:19:33.305Z,-6.99
2022-12-02T10:21:36.081Z,-7.09
2022-12-02T10:24:03.036Z,-7.08
2022-12-02T10:26:14.567Z,-7.04
2022-12-02T10:28:32.173Z,-7.07
2022-12-02T10:30:48.633Z,-7.13
2022-12-02T10:33:06.135Z,-7.13
2022-12-02T10:35:11.279Z,-7.19
2022-12-02T10:37:25.693Z,-7.21
2022-12-02T10:39:37.917Z,-7.18
2022-12-02T10:41:41.027Z,-7.17
2022-12-02T10:43:53.803Z,-7.15
2022-12-02T10:45:59.319Z,-7.17
2022-12-02T10:48:16.609Z,-7.16
2022-12-02T10:50:24.750Z,-7.21
2022-12-02T10:52:31.747Z,-7.27
2022-12-02T10:54:43.013Z,-7.33
2022-12-02T10:56:46.636Z,-7.29
2022-12-02T10:58:51.514Z,-7.34
2022-12-02T11:00:54.161Z,-7.33
2022-12-02T11:03:05.116Z,-7.33
2022-12-02T11:05:20.296Z,-7.38
2022-12-02T11:07:42.038Z,-7.35
2022-12-02T11:10:03.937Z,-7.39
2022-12-02T11:12:31.711Z,-7.42
2022-12-02T11:14:55.261Z,-7.46
2022-12-02T11:17:16.729Z,-7.54
2022-12-02T11:19:45.351Z,-7.57
2022-12-02T11:21:47.951Z,-7.60
2022-12-02T11:24:22.534Z,-7.72
2022-12-02T11:27:00.036Z,-7.79
2022-12-02T11:29:16.739Z,-7.87
2022-12-02T11:31:20.978Z,-7.95
2022-12-02T11:33:53.108Z,-8.03
2022-12-02T11:36:16.893Z,-8.02
2022-12-02T11:38:23.253Z,-8.03
2022-12-02T11:40:28.555Z,-8.04
2022-12-02T11:42:36.093Z,-8.08
2022-12-02T11:44:38.677Z,-8.13
2022-12-02T11:46:48.857Z,-8.15
2022-12-02T11:48:56.247Z,-8.19
2022-12-02T11:50:58.933Z,-8.21
2022-12-02T11:53:18.052Z,-8.25
2022-12-02T11:55:36.281Z,-8.36
2022-12-02T11:57:53.704Z,-8.33
2022-12-02T11:59:57.306Z,-8.39
2022-12-02T12:02:21.017Z,-8.44
2022-12-02T12:04:28.237Z,-8.51
2022-12-02T12:06:35.035Z,-8.55
2022-12-02T12:08:39.893Z,-8.64
2022-12-02T12:10:42.582Z,-8.63
2022-12-02T12:13:14.306Z,-8.68
2022-12-02T12:15:54.782Z,-8.70
2022-12-02T12:18:36.676Z,-8.78
2022-12-02T12:20:58.127Z,-8.83
2022-12-02T12:23:31.741Z,-8.88
2022-12-02T12:25:53.515Z,-8.92
2022-12-02T12:28:28.333Z,-9.02
2022-12-02T12:30:49.718Z,-9.14
2022-12-02T12:33:11.465Z,-9.24
2022-12-02T12:35:32.866Z,-9.37
2022-12-02T12:37:54.693Z,-9.49
2022-12-02T12:40:16.376Z,-9.61
2022-12-02T12:42:37.886Z,-9.72
2022-12-02T12:44:59.304Z,-9.83
2022-12-02T12:47:22.630Z,-9.93
2022-12-02T12:49:44.431Z,-10.03
2022-12-02T12:51:47.052Z,-10.10
2022-12-02T12:54:08.544Z,-10.16
2022-12-02T12:56:29.686Z,-10.22
2022-12-02T12:58:50.964Z,-10.32
2022-12-02T13:01:12.580Z,-10.37
2022-12-02T13:03:34.531Z,-10.43
2022-12-02T13:05:55.879Z,-10.43
2022-12-02T13:08:17.618Z,-10.45
2022-12-02T13:10:39.327Z,-10.43
2022-12-02T13:13:00.757Z,-10.47
2022-12-02T13:15:03.658Z,-10.44
2022-12-02T13:17:27.011Z,-10.43
2022-12-02T13:19:48.176Z,-10.42
2022-12-02T13:22:09.686Z,-10.41
2022-12-02T13:24:35.555Z,-10.39
2022-12-02T13:27:00.512Z,-10.37
2022-12-02T13:29:22.212Z,-10.34
2022-12-02T13:31:44.605Z,-10.36
2022-12-02T13:34:07.024Z,-10.34
2022-12-02T13:36:28.512Z,-10.34
2022-12-02T13:38:51.151Z,-10.34
2022-12-02T13:41:12.623Z,-10.32
2022-12-02T13:43:34.425Z,-10.34
2022-12-02T13:45:55.974Z,-10.32
2022-12-02T13:48:17.742Z,-10.33
2022-12-02T13:50:39.624Z,-10.34
2022-12-02T13:52:42.648Z,-10.36
2022-12-02T13:54:45.520Z,-10.39
2022-12-02T13:56:48.200Z,-10.48
2022-12-02T13:58:52.680Z,-10.47
2022-12-02T14:00:55.268Z,-10.55
2022-12-02T14:02:58.061Z,-10.62
2022-12-02T14:05:07.302Z,-10.71
2022-12-02T14:07:10.559Z,-10.81
2022-12-02T14:09:13.907Z,-10.95
2022-12-02T14:11:18.242Z,-10.98
2022-12-02T14:13:23.914Z,-11.10
2022-12-02T14:15:26.975Z,-11.17
2022-12-02T14:17:29.619Z,-11.26
2022-12-02T14:19:32.212Z,-11.32
2022-12-02T14:21:34.829Z,-11.37
2022-12-02T14:23:37.509Z,-11.43
2022-12-02T14:25:40.085Z,-11.48
2022-12-02T14:27:42.688Z,-11.54
2022-12-02T14:29:45.656Z,-11.60
2022-12-02T14:31:48.264Z,-11.68
2022-12-02T14:34:11.915Z,-11.72
2022-12-02T14:36:34.390Z,-11.77
2022-12-02T14:38:55.437Z,-11.84
2022-12-02T14:41:17.105Z,-11.87
2022-12-02T14:43:38.722Z,-11.95
2022-12-02T14:46:00.179Z,-12.01
2022-12-02T14:48:02.793Z,-12.16
2022-12-02T14:50:06.227Z,-12.11
2022-12-02T14:52:09.263Z,-12.14
2022-12-02T14:54:11.888Z,-12.16
2022-12-02T14:56:14.523Z,-12.20
2022-12-02T14:58:17.634Z,-12.24
2022-12-02T15:00:20.848Z,-12.28
2022-12-02T15:02:23.553Z,-12.32
2022-12-02T15:04:28.932Z,-12.34
2022-12-02T15:06:31.761Z,-12.37
2022-12-02T15:08:34.421Z,-12.40
2022-12-02T15:10:41.684Z,-12.43
2022-12-02T15:12:44.594Z,-12.44
2022-12-02T15:15:30.703Z,-12.48
2022-12-02T15:17:49.269Z,-12.53
2022-12-02T15:19:51.943Z,-12.51
2022-12-02T15:21:54.565Z,-12.51
2022-12-02T15:23:57.124Z,-12.54
2022-12-02T15:25:59.796Z,-12.58
2022-12-02T15:28:02.436Z,-12.59
2022-12-02T15:30:05.616Z,-12.58
2022-12-02T15:32:08.292Z,-12.62
2022-12-02T15:34:10.848Z,-12.59
2022-12-02T15:36:13.877Z,-12.64
2022-12-02T15:38:16.970Z,-12.68
2022-12-02T15:40:19.572Z,-12.71
2022-12-02T15:42:22.396Z,-12.71
2022-12-02T15:44:27.017Z,-12.72
2022-12-02T15:46:29.680Z,-12.78
2022-12-02T15:48:32.436Z,-12.80
2022-12-02T15:50:36.296Z,-12.84
2022-12-02T15:52:39.009Z,-12.83
2022-12-02T15:54:41.585Z,-12.82
2022-12-02T15:56:44.222Z,-12.90
2022-12-02T15:58:47.701Z,-12.88
2022-12-02T16:00:50.385Z,-12.92
2022-12-02T16:02:56.280Z,-12.93
2022-12-02T16:04:59.276Z,-12.93
2022-12-02T16:07:02.125Z,-12.95
2022-12-02T16:09:05.442Z,-12.94
2022-12-02T16:11:08.281Z,-12.95
2022-12-02T16:13:10.791Z,-12.96
2022-12-02T16:15:13.560Z,-12.96
2022-12-02T16:17:16.098Z,-13.01
2022-12-02T16:19:18.636Z,-13.01
2022-12-02T16:21:21.259Z,-13.04
2022-12-02T16:23:24.327Z,-13.06
2022-12-02T16:25:28.057Z,-13.08
2022-12-02T16:27:30.705Z,-13.06
2022-12-02T16:29:33.334Z,-13.07
2022-12-02T16:31:36.143Z,-13.09
2022-12-02T16:33:38.796Z,-13.08
2022-12-02T16:35:41.440Z,-13.04
2022-12-02T16:37:44.084Z,-13.04
2022-12-02T16:39:46.867Z,-13.02
2022-12-02T16:41:49.393Z,-13.02
2022-12-02T16:43:51.946Z,-12.99
2022-12-02T16:45:54.710Z,-12.96
2022-12-02T16:47:57.465Z,-12.91
2022-12-02T16:50:00.028Z,-12.96
2022-12-02T16:52:02.660Z,-12.97
2022-12-02T16:54:05.321Z,-12.97
2022-12-02T16:56:08.168Z,-13.02
2022-12-02T16:58:10.801Z,-13.06
2022-12-02T17:00:13.880Z,-13.03
2022-12-02T17:02:16.545Z,-13.06
2022-12-02T17:04:19.652Z,-13.05
2022-12-02T17:06:22.443Z,-13.08
2022-12-02T17:08:25.282Z,-13.10
2022-12-02T17:10:27.951Z,-13.14
2022-12-02T17:12:30.649Z,-13.21
2022-12-02T17:14:33.194Z,-13.31
2022-12-02T17:16:35.812Z,-13.32
2022-12-02T17:18:38.468Z,-13.36
2022-12-02T17:20:41.157Z,-13.45
2022-12-02T17:22:44.252Z,-13.51
2022-12-02T17:24:46.794Z,-13.52
2022-12-02T17:26:55.507Z,-13.60
2022-12-02T17:28:58.548Z,-13.63
2022-12-02T17:31:01.245Z,-13.67
2022-12-02T17:33:04.001Z,-13.72
2022-12-02T17:35:07.064Z,-13.75
2022-12-02T17:37:09.739Z,-13.74
2022-12-02T17:39:12.667Z,-13.78
2022-12-02T17:41:15.184Z,-13.85
2022-12-02T17:43:17.703Z,-13.89
2022-12-02T17:45:20.390Z,-13.94
2022-12-02T17:47:23.007Z,-13.99
2022-12-02T17:49:28.525Z,-14.00
2022-12-02T17:51:35.252Z,-14.07
2022-12-02T17:53:38.542Z,-14.08
2022-12-02T17:55:41.209Z,-14.14
2022-12-02T17:57:43.873Z,-14.14
2022-12-02T17:59:46.488Z,-14.21
2022-12-02T18:01:50.131Z,-14.33
2022-12-02T18:03:52.856Z,-14.27
2022-12-02T18:05:55.446Z,-14.28
2022-12-02T18:07:58.119Z,-14.31
2022-12-02T18:10:00.771Z,-14.32
2022-12-02T18:12:03.288Z,-14.35
2022-12-02T18:14:05.988Z,-14.37
2022-12-02T18:16:09.016Z,-14.39
2022-12-02T18:18:11.630Z,-14.40
2022-12-02T18:20:14.158Z,-14.42
2022-12-02T18:22:16.879Z,-14.47
2022-12-02T18:24:19.459Z,-14.46
2022-12-02T18:26:22.020Z,-14.49
2022-12-02T18:28:24.861Z,-14.50
2022-12-02T18:30:27.755Z,-14.56
2022-12-02T18:32:30.390Z,-14.61
2022-12-02T18:34:32.993Z,-14.63
2022-12-02T18:36:35.606Z,-14.65
2022-12-02T18:38:38.175Z,-14.65
2022-12-02T18:40:40.721Z,-14.68
2022-12-02T18:42:43.699Z,-14.72
2022-12-02T18:44:46.205Z,-14.75
2022-12-02T18:46:48.801Z,-14.76
2022-12-02T18:48:51.486Z,-14.78
2022-12-02T18:50:54.051Z,-14.81
2022-12-02T18:52:56.709Z,-14.83
2022-12-02T18:54:59.396Z,-14.83
2022-12-02T18:57:01.956Z,-14.88
2022-12-02T18:59:04.817Z,-14.96
2022-12-02T19:01:07.473Z,-14.96
2022-12-02T19:03:10.611Z,-14.97
2022-12-02T19:05:13.234Z,-14.99
2022-12-02T19:07:17.472Z,-15.02
2022-12-02T19:09:20.150Z,-15.05
2022-12-02T19:11:22.795Z,-15.11
2022-12-02T19:13:25.452Z,-15.13
2022-12-02T19:15:28.293Z,-15.15
2022-12-02T19:17:30.929Z,-15.17
2022-12-02T19:19:33.637Z,-15.18
2022-12-02T19:21:36.332Z,-15.20
2022-12-02T19:23:39.013Z,-15.20
2022-12-02T19:25:46.903Z,-15.25
2022-12-02T19:27:59.546Z,-15.27
2022-12-02T19:30:02.456Z,-15.30
2022-12-02T19:32:06.298Z,-15.36
2022-12-02T19:34:08.871Z,-15.37
2022-12-02T19:36:11.624Z,-15.39
2022-12-02T19:38:15.657Z,-15.45
2022-12-02T19:40:18.467Z,-15.44
2022-12-02T19:42:21.119Z,-15.49
2022-12-02T19:44:23.926Z,-15.55
2022-12-02T19:46:26.528Z,-15.56
2022-12-02T19:48:29.210Z,-15.60
2022-12-02T19:50:31.916Z,-15.61
2022-12-02T19:52:34.467Z,-15.62
2022-12-02T19:54:37.073Z,-15.65
2022-12-02T19:56:39.662Z,-15.67
2022-12-02T19:58:42.411Z,-15.68
2022-12-02T20:00:45.324Z,-15.71
2022-12-02T20:02:48.071Z,-15.71
2022-12-02T20:04:50.749Z,-15.72
2022-12-02T20:06:55.830Z,-15.72
2022-12-02T20:08:58.804Z,-15.75
2022-12-02T20:11:01.449Z,-15.73
2022-12-02T20:13:04.098Z,-15.76
2022-12-02T20:15:07.258Z,-15.79
2022-12-02T20:17:10.056Z,-15.81
2022-12-02T20:19:12.887Z,-15.81
2022-12-02T20:21:15.470Z,-15.81
2022-12-02T20:23:18.084Z,-15.83
2022-12-02T20:25:20.784Z,-15.83
2022-12-02T20:27:23.627Z,-15.83
2022-12-02T20:29:26.229Z,-15.92
2022-12-02T20:31:29.064Z,-15.86
2022-12-02T20:33:31.669Z,-15.88
2022-12-02T20:35:34.254Z,-15.91
2022-12-02T20:37:37.077Z,-15.93
2022-12-02T20:39:40.384Z,-15.95
2022-12-02T20:41:42.957Z,-15.99
2022-12-02T20:43:46.179Z,-16.00
2022-12-02T20:45:48.746Z,-16.03
2022-12-02T20:47:51.436Z,-16.08
2022-12-02T20:49:54.048Z,-16.09
2022-12-02T20:51:56.890Z,-16.11
2022-12-02T20:53:59.453Z,-16.13
2022-12-02T20:56:02.020Z,-16.12
2022-12-02T20:58:04.641Z,-16.14
2022-12-02T21:00:09.587Z,-16.18
2022-12-02T21:02:12.390Z,-16.21
2022-12-02T21:04:15.027Z,-16.20
2022-12-02T21:06:17.708Z,-16.21
2022-12-02T21:08:20.336Z,-16.22
2022-12-02T21:10:22.880Z,-16.24
2022-12-02T21:12:25.516Z,-16.26
2022-12-02T21:14:28.022Z,-16.31
2022-12-02T21:16:30.622Z,-16.30
2022-12-02T21:18:37.893Z,-16.31
2022-12-02T21:20:40.908Z,-16.35
2022-12-02T21:22:43.446Z,-16.37
2022-12-02T21:24:46.106Z,-16.37
2022-12-02T21:26:48.674Z,-16.39
2022-12-02T21:28:51.246Z,-16.44
2022-12-02T21:30:53.858Z,-16.44
2022-12-02T21:32:56.581Z,-16.46
2022-12-02T21:34:59.182Z,-16.47
2022-12-02T21:37:01.844Z,-16.46
2022-12-02T21:39:04.432Z,-16.49
2022-12-02T21:41:06.982Z,-16.51
2022-12-02T21:43:12.983Z,-16.52
2022-12-02T21:45:18.449Z,-16.53
2022-12-02T21:47:21.037Z,-16.57
2022-12-02T21:49:23.639Z,-16.60
2022-12-02T21:51:26.218Z,-16.63
2022-12-02T21:53:28.883Z,-16.68
2022-12-02T21:55:31.820Z,-16.64
2022-12-02T21:57:34.381Z,-16.67
2022-12-02T21:59:36.935Z,-16.69
2022-12-02T22:01:40.911Z,-16.73
2022-12-02T22:03:44.206Z,-16.76
2022-12-02T22:05:46.912Z,-16.78
2022-12-02T22:07:49.576Z,-16.74
2022-12-02T22:09:52.220Z,-16.74
2022-12-02T22:11:54.845Z,-16.73
2022-12-02T22:13:57.581Z,-16.74
2022-12-02T22:16:00.252Z,-16.77
2022-12-02T22:18:02.904Z,-16.81
2022-12-02T22:20:06.789Z,-16.82
2022-12-02T22:22:09.397Z,-16.83
2022-12-02T22:24:12.031Z,-16.81
2022-12-02T22:26:19.545Z,-16.84
2022-12-02T22:28:22.716Z,-16.87
2022-12-02T22:30:25.291Z,-16.91
2022-12-02T22:32:27.888Z,-16.91
2022-12-02T22:34:30.530Z,-16.94
2022-12-02T22:36:33.148Z,-16.95
2022-12-02T22:38:35.769Z,-16.97
2022-12-02T22:40:38.989Z,-17.00
2022-12-02T22:42:41.629Z,-17.02
2022-12-02T22:44:44.256Z,-17.03
2022-12-02T22:46:46.855Z,-17.01
2022-12-02T22:48:49.593Z,-17.03
2022-12-02T22:50:52.221Z,-17.02
2022-12-02T22:52:54.738Z,-17.05
2022-12-02T22:54:57.297Z,-17.05
2022-12-02T22:56:59.873Z,-17.06
2022-12-02T22:59:02.536Z,-17.10
2022-12-02T23:01:05.303Z,-17.08
2022-12-02T23:03:08.037Z,-17.10
2022-12-02T23:05:11.513Z,-17.10
2022-12-02T23:07:14.502Z,-17.13
2022-12-02T23:09:17.284Z,-17.19
2022-12-02T23:11:19.988Z,-17.14
2022-12-02T23:13:22.576Z,-17.15
2022-12-02T23:15:36.668Z,-17.15
2022-12-02T23:17:39.987Z,-17.18
2022-12-02T23:19:42.725Z,-17.19
2022-12-02T23:21:45.557Z,-17.19
2022-12-02T23:23:48.584Z,-17.20
2022-12-02T23:25:51.164Z,-17.26
2022-12-02T23:27:53.782Z,-17.18
2022-12-02T23:29:56.506Z,-17.15
2022-12-02T23:31:59.250Z,-17.16
2022-12-02T23:34:01.813Z,-17.18
2022-12-02T23:36:04.974Z,-17.19
2022-12-02T23:38:07.672Z,-17.21
2022-12-02T23:40:13.543Z,-17.22
2022-12-02T23:42:16.098Z,-17.24
2022-12-02T23:44:18.648Z,-17.24
2022-12-02T23:46:21.204Z,-17.25
2022-12-02T23:48:23.799Z,-17.27
2022-12-02T23:50:26.448Z,-17.29
2022-12-02T23:52:28.950Z,-17.31
2022-12-02T23:54:31.525Z,-17.35
2022-12-02T23:56:34.219Z,-17.38
2022-12-02T23:58:36.899Z,-17.41
